sensor_id;sensor_type;location;lat;lon;timestamp;noise_LAeq;noise_LA_min;noise_LA_max;noise_LA01;noise_LA95
83034;Laerm;72848;52.216;5.616;2023-12-28T00:01:50;36.78;32.84;49.43;;
83034;Laerm;72848;52.216;5.616;2023-12-28T00:04:18;41.90;33.65;50.44;;
83034;Laerm;72848;52.216;5.616;2023-12-28T00:06:46;39.14;33.72;47.74;;
83034;Laerm;72848;52.216;5.616;2023-12-28T00:09:15;44.53;37.00;60.52;;
83034;Laerm;72848;52.216;5.616;2023-12-28T00:11:46;42.80;34.96;60.01;;
83034;Laerm;72848;52.216;5.616;2023-12-28T00:14:14;40.04;34.10;51.86;;
83034;Laerm;72848;52.216;5.616;2023-12-28T00:16:42;40.25;34.07;47.50;;
83034;Laerm;72848;52.216;5.616;2023-12-28T00:19:11;41.30;32.72;55.72;;
83034;Laerm;72848;52.216;5.616;2023-12-28T00:21:39;41.35;32.93;50.06;;
83034;Laerm;72848;52.216;5.616;2023-12-28T00:24:07;43.12;35.74;52.24;;
83034;Laerm;72848;52.216;5.616;2023-12-28T00:26:36;36.69;33.79;44.59;;
83034;Laerm;72848;52.216;5.616;2023-12-28T00:29:07;45.80;34.10;66.66;;
83034;Laerm;72848;52.216;5.616;2023-12-28T00:31:35;38.46;34.24;45.48;;
83034;Laerm;72848;52.216;5.616;2023-12-28T00:34:03;38.14;34.61;48.90;;
83034;Laerm;72848;52.216;5.616;2023-12-28T00:36:32;42.13;33.84;50.60;;
83034;Laerm;72848;52.216;5.616;2023-12-28T00:39:00;42.64;35.26;55.70;;
83034;Laerm;72848;52.216;5.616;2023-12-28T00:41:29;43.90;35.75;57.99;;
83034;Laerm;72848;52.216;5.616;2023-12-28T00:43:57;41.17;36.61;48.81;;
83034;Laerm;72848;52.216;5.616;2023-12-28T00:46:28;43.05;37.41;52.99;;
83034;Laerm;72848;52.216;5.616;2023-12-28T00:48:56;37.78;34.25;45.11;;
83034;Laerm;72848;52.216;5.616;2023-12-28T00:51:25;42.84;35.29;50.16;;
83034;Laerm;72848;52.216;5.616;2023-12-28T00:53:53;41.02;34.69;50.05;;
83034;Laerm;72848;52.216;5.616;2023-12-28T00:56:21;39.59;35.26;47.78;;
83034;Laerm;72848;52.216;5.616;2023-12-28T00:58:50;40.54;33.84;50.08;;
83034;Laerm;72848;52.216;5.616;2023-12-28T01:01:18;38.72;34.66;43.72;;
83034;Laerm;72848;52.216;5.616;2023-12-28T01:03:49;38.45;33.61;44.03;;
83034;Laerm;72848;52.216;5.616;2023-12-28T01:06:17;37.33;34.23;41.37;;
83034;Laerm;72848;52.216;5.616;2023-12-28T01:08:46;38.49;33.60;45.66;;
83034;Laerm;72848;52.216;5.616;2023-12-28T01:11:14;35.42;31.93;43.17;;
83034;Laerm;72848;52.216;5.616;2023-12-28T01:13:42;40.09;34.54;45.69;;
83034;Laerm;72848;52.216;5.616;2023-12-28T01:16:12;39.01;34.24;45.90;;
83034;Laerm;72848;52.216;5.616;2023-12-28T01:18:40;37.21;33.24;44.60;;
83034;Laerm;72848;52.216;5.616;2023-12-28T01:21:11;38.62;33.46;51.28;;
83034;Laerm;72848;52.216;5.616;2023-12-28T01:23:39;35.93;32.53;43.67;;
83034;Laerm;72848;52.216;5.616;2023-12-28T01:26:11;37.10;31.92;42.82;;
83034;Laerm;72848;52.216;5.616;2023-12-28T01:28:40;36.52;31.68;48.68;;
83034;Laerm;72848;52.216;5.616;2023-12-28T01:31:08;35.80;31.01;42.86;;
83034;Laerm;72848;52.216;5.616;2023-12-28T01:33:37;34.39;32.10;41.16;;
83034;Laerm;72848;52.216;5.616;2023-12-28T01:36:17;39.81;33.61;46.41;;
83034;Laerm;72848;52.216;5.616;2023-12-28T01:38:45;36.42;33.46;46.48;;
83034;Laerm;72848;52.216;5.616;2023-12-28T01:41:14;34.92;32.26;39.00;;
83034;Laerm;72848;52.216;5.616;2023-12-28T01:43:42;37.11;33.49;43.24;;
83034;Laerm;72848;52.216;5.616;2023-12-28T01:46:12;36.10;32.60;42.83;;
83034;Laerm;72848;52.216;5.616;2023-12-28T01:48:42;40.32;33.49;49.40;;
83034;Laerm;72848;52.216;5.616;2023-12-28T01:51:12;37.94;33.04;42.97;;
83034;Laerm;72848;52.216;5.616;2023-12-28T01:53:44;36.72;33.53;41.26;;
83034;Laerm;72848;52.216;5.616;2023-12-28T01:56:13;39.09;33.28;49.77;;
83034;Laerm;72848;52.216;5.616;2023-12-28T01:58:43;39.41;32.50;47.70;;
83034;Laerm;72848;52.216;5.616;2023-12-28T02:01:12;37.09;32.75;43.64;;
83034;Laerm;72848;52.216;5.616;2023-12-28T02:03:40;41.94;32.85;53.70;;
83034;Laerm;72848;52.216;5.616;2023-12-28T02:06:09;37.52;32.46;50.24;;
83034;Laerm;72848;52.216;5.616;2023-12-28T02:08:38;37.88;33.86;42.65;;
83034;Laerm;72848;52.216;5.616;2023-12-28T02:11:09;35.83;31.97;42.62;;
83034;Laerm;72848;52.216;5.616;2023-12-28T02:13:37;38.06;32.38;51.85;;
83034;Laerm;72848;52.216;5.616;2023-12-28T02:16:06;37.07;32.83;43.02;;
83034;Laerm;72848;52.216;5.616;2023-12-28T02:18:38;37.06;33.69;44.58;;
83034;Laerm;72848;52.216;5.616;2023-12-28T02:21:07;36.39;33.38;39.17;;
83034;Laerm;72848;52.216;5.616;2023-12-28T02:23:36;37.32;33.39;45.84;;
83034;Laerm;72848;52.216;5.616;2023-12-28T02:26:07;37.82;33.89;43.16;;
83034;Laerm;72848;52.216;5.616;2023-12-28T02:28:35;39.02;33.39;45.49;;
83034;Laerm;72848;52.216;5.616;2023-12-28T02:31:03;42.84;34.64;51.74;;
83034;Laerm;72848;52.216;5.616;2023-12-28T02:33:36;39.88;35.77;48.93;;
83034;Laerm;72848;52.216;5.616;2023-12-28T02:36:07;36.29;33.89;40.92;;
83034;Laerm;72848;52.216;5.616;2023-12-28T02:38:37;39.69;34.66;45.54;;
83034;Laerm;72848;52.216;5.616;2023-12-28T02:41:09;37.34;33.91;44.31;;
83034;Laerm;72848;52.216;5.616;2023-12-28T02:43:38;41.30;35.00;50.41;;
83034;Laerm;72848;52.216;5.616;2023-12-28T02:46:06;41.09;35.54;49.19;;
83034;Laerm;72848;52.216;5.616;2023-12-28T02:48:34;40.68;36.09;49.41;;
83034;Laerm;72848;52.216;5.616;2023-12-28T02:51:03;41.80;36.19;48.55;;
83034;Laerm;72848;52.216;5.616;2023-12-28T02:53:31;39.50;36.07;44.63;;
83034;Laerm;72848;52.216;5.616;2023-12-28T02:56:00;39.87;35.90;49.07;;
83034;Laerm;72848;52.216;5.616;2023-12-28T02:58:31;49.61;36.69;63.42;;
83034;Laerm;72848;52.216;5.616;2023-12-28T03:00:59;42.69;37.90;51.85;;
83034;Laerm;72848;52.216;5.616;2023-12-28T03:03:28;45.48;37.35;59.13;;
83034;Laerm;72848;52.216;5.616;2023-12-28T03:05:56;44.12;38.54;51.24;;
83034;Laerm;72848;52.216;5.616;2023-12-28T03:08:24;40.53;35.98;44.72;;
83034;Laerm;72848;52.216;5.616;2023-12-28T03:10:53;42.50;35.34;50.92;;
83034;Laerm;72848;52.216;5.616;2023-12-28T03:13:21;38.40;34.70;52.36;;
83034;Laerm;72848;52.216;5.616;2023-12-28T03:15:52;39.57;33.79;46.93;;
83034;Laerm;72848;52.216;5.616;2023-12-28T03:18:20;43.02;36.28;53.22;;
83034;Laerm;72848;52.216;5.616;2023-12-28T03:20:49;40.46;35.12;50.05;;
83034;Laerm;72848;52.216;5.616;2023-12-28T03:23:17;41.69;36.01;49.63;;
83034;Laerm;72848;52.216;5.616;2023-12-28T03:25:46;46.77;37.90;54.73;;
83034;Laerm;72848;52.216;5.616;2023-12-28T03:28:14;41.88;36.43;47.37;;
83034;Laerm;72848;52.216;5.616;2023-12-28T03:30:42;39.03;34.43;42.84;;
83034;Laerm;72848;52.216;5.616;2023-12-28T03:33:13;41.32;36.34;47.24;;
83034;Laerm;72848;52.216;5.616;2023-12-28T03:35:42;43.89;37.87;51.62;;
83034;Laerm;72848;52.216;5.616;2023-12-28T03:38:10;46.52;38.55;53.97;;
83034;Laerm;72848;52.216;5.616;2023-12-28T03:40:39;46.73;36.78;56.63;;
83034;Laerm;72848;52.216;5.616;2023-12-28T03:43:07;41.28;36.75;48.10;;
83034;Laerm;72848;52.216;5.616;2023-12-28T03:45:35;40.72;36.92;44.71;;
83034;Laerm;72848;52.216;5.616;2023-12-28T03:48:04;38.94;35.95;44.63;;
83034;Laerm;72848;52.216;5.616;2023-12-28T03:50:36;44.30;37.92;57.11;;
83034;Laerm;72848;52.216;5.616;2023-12-28T03:53:05;44.70;38.89;50.44;;
83034;Laerm;72848;52.216;5.616;2023-12-28T03:55:33;44.54;37.59;57.06;;
83034;Laerm;72848;52.216;5.616;2023-12-28T03:58:01;42.08;37.02;51.96;;
83034;Laerm;72848;52.216;5.616;2023-12-28T04:00:30;48.76;38.87;57.83;;
83034;Laerm;72848;52.216;5.616;2023-12-28T04:02:58;49.05;40.24;59.03;;
83034;Laerm;72848;52.216;5.616;2023-12-28T04:05:27;48.32;38.09;65.27;;
83034;Laerm;72848;52.216;5.616;2023-12-28T04:07:57;42.84;38.16;51.79;;
83034;Laerm;72848;52.216;5.616;2023-12-28T04:10:29;40.94;35.95;46.14;;
83034;Laerm;72848;52.216;5.616;2023-12-28T04:12:58;42.84;36.04;50.71;;
83034;Laerm;72848;52.216;5.616;2023-12-28T04:15:26;45.90;37.98;55.49;;
83034;Laerm;72848;52.216;5.616;2023-12-28T04:17:54;46.07;38.07;56.33;;
83034;Laerm;72848;52.216;5.616;2023-12-28T04:20:23;43.33;39.26;52.23;;
83034;Laerm;72848;52.216;5.616;2023-12-28T04:22:51;47.87;39.88;55.65;;
83034;Laerm;72848;52.216;5.616;2023-12-28T04:25:22;43.62;38.72;50.36;;
83034;Laerm;72848;52.216;5.616;2023-12-28T04:27:50;47.37;39.55;63.59;;
83034;Laerm;72848;52.216;5.616;2023-12-28T04:30:19;41.76;38.06;56.65;;
83034;Laerm;72848;52.216;5.616;2023-12-28T04:32:47;46.27;40.34;55.72;;
83034;Laerm;72848;52.216;5.616;2023-12-28T04:35:15;47.99;40.31;56.75;;
83034;Laerm;72848;52.216;5.616;2023-12-28T04:37:44;46.68;39.28;56.22;;
83034;Laerm;72848;52.216;5.616;2023-12-28T04:40:12;45.10;40.83;54.91;;
83034;Laerm;72848;52.216;5.616;2023-12-28T04:42:43;46.57;40.02;55.99;;
83034;Laerm;72848;52.216;5.616;2023-12-28T04:45:12;45.82;40.50;54.93;;
83034;Laerm;72848;52.216;5.616;2023-12-28T04:47:40;43.90;38.51;49.42;;
83034;Laerm;72848;52.216;5.616;2023-12-28T04:50:09;43.62;39.79;48.35;;
83034;Laerm;72848;52.216;5.616;2023-12-28T04:52:37;44.25;39.91;52.60;;
83034;Laerm;72848;52.216;5.616;2023-12-28T04:55:06;45.07;40.56;51.78;;
83034;Laerm;72848;52.216;5.616;2023-12-28T04:57:34;47.18;40.67;58.78;;
83034;Laerm;72848;52.216;5.616;2023-12-28T05:00:06;45.58;39.50;53.73;;
83034;Laerm;72848;52.216;5.616;2023-12-28T05:02:35;41.69;37.64;46.49;;
83034;Laerm;72848;52.216;5.616;2023-12-28T05:05:03;45.61;40.67;52.09;;
83034;Laerm;72848;52.216;5.616;2023-12-28T05:07:32;44.47;40.42;50.68;;
83034;Laerm;72848;52.216;5.616;2023-12-28T05:10:00;43.35;39.45;50.88;;
83034;Laerm;72848;52.216;5.616;2023-12-28T05:12:28;45.21;40.65;53.83;;
83034;Laerm;72848;52.216;5.616;2023-12-28T05:14:57;47.58;41.48;57.47;;
83034;Laerm;72848;52.216;5.616;2023-12-28T05:17:28;44.76;40.10;52.46;;
83034;Laerm;72848;52.216;5.616;2023-12-28T05:19:56;44.41;38.50;52.69;;
83034;Laerm;72848;52.216;5.616;2023-12-28T05:22:25;46.20;39.56;55.98;;
83034;Laerm;72848;52.216;5.616;2023-12-28T05:24:53;50.18;41.20;59.71;;
83034;Laerm;72848;52.216;5.616;2023-12-28T05:27:21;47.16;41.62;57.07;;
83034;Laerm;72848;52.216;5.616;2023-12-28T05:29:50;44.94;39.58;54.41;;
83034;Laerm;72848;52.216;5.616;2023-12-28T05:32:18;45.97;40.00;55.34;;
83034;Laerm;72848;52.216;5.616;2023-12-28T05:34:49;45.75;41.10;52.63;;
83034;Laerm;72848;52.216;5.616;2023-12-28T05:37:17;51.88;41.97;64.03;;
83034;Laerm;72848;52.216;5.616;2023-12-28T05:39:46;49.46;41.49;58.31;;
83034;Laerm;72848;52.216;5.616;2023-12-28T05:42:14;45.29;40.64;54.07;;
83034;Laerm;72848;52.216;5.616;2023-12-28T05:44:43;48.31;41.75;56.49;;
83034;Laerm;72848;52.216;5.616;2023-12-28T05:47:11;47.18;42.30;53.26;;
83034;Laerm;72848;52.216;5.616;2023-12-28T05:49:39;47.82;41.02;60.09;;
83034;Laerm;72848;52.216;5.616;2023-12-28T05:52:10;48.52;41.84;60.28;;
83034;Laerm;72848;52.216;5.616;2023-12-28T05:54:39;48.19;42.21;56.20;;
83034;Laerm;72848;52.216;5.616;2023-12-28T05:57:07;49.10;42.21;56.11;;
83034;Laerm;72848;52.216;5.616;2023-12-28T05:59:37;46.19;41.63;55.56;;
83034;Laerm;72848;52.216;5.616;2023-12-28T06:02:05;45.56;39.63;55.04;;
83034;Laerm;72848;52.216;5.616;2023-12-28T06:04:34;47.97;39.30;54.68;;
83034;Laerm;72848;52.216;5.616;2023-12-28T06:07:03;50.89;42.58;63.02;;
83034;Laerm;72848;52.216;5.616;2023-12-28T06:09:34;46.31;42.09;52.85;;
83034;Laerm;72848;52.216;5.616;2023-12-28T06:12:02;47.23;41.81;54.69;;
83034;Laerm;72848;52.216;5.616;2023-12-28T06:14:31;46.02;41.85;53.86;;
83034;Laerm;72848;52.216;5.616;2023-12-28T06:16:59;47.32;41.33;53.10;;
83034;Laerm;72848;52.216;5.616;2023-12-28T06:19:28;45.85;39.76;53.98;;
83034;Laerm;72848;52.216;5.616;2023-12-28T06:21:56;43.18;39.42;49.55;;
83034;Laerm;72848;52.216;5.616;2023-12-28T06:24:24;46.15;41.50;52.05;;
83034;Laerm;72848;52.216;5.616;2023-12-28T06:26:55;44.20;40.86;49.87;;
83034;Laerm;72848;52.216;5.616;2023-12-28T06:29:24;44.87;41.84;58.94;;
83034;Laerm;72848;52.216;5.616;2023-12-28T06:31:52;43.68;39.57;49.99;;
83034;Laerm;72848;52.216;5.616;2023-12-28T06:34:21;47.43;41.71;52.55;;
83034;Laerm;72848;52.216;5.616;2023-12-28T06:36:49;47.83;42.11;55.72;;
83034;Laerm;72848;52.216;5.616;2023-12-28T06:39:17;48.69;40.57;58.87;;
83034;Laerm;72848;52.216;5.616;2023-12-28T06:41:46;46.08;42.03;50.25;;
83034;Laerm;72848;52.216;5.616;2023-12-28T06:44:18;46.12;40.92;53.74;;
83034;Laerm;72848;52.216;5.616;2023-12-28T06:46:46;44.44;40.89;49.29;;
83034;Laerm;72848;52.216;5.616;2023-12-28T06:49:14;52.84;43.53;63.74;;
83034;Laerm;72848;52.216;5.616;2023-12-28T06:51:43;46.69;42.07;61.80;;
83034;Laerm;72848;52.216;5.616;2023-12-28T06:54:11;50.40;42.05;60.27;;
83034;Laerm;72848;52.216;5.616;2023-12-28T06:56:39;46.17;41.02;61.66;;
83034;Laerm;72848;52.216;5.616;2023-12-28T06:59:08;46.10;41.30;53.45;;
83034;Laerm;72848;52.216;5.616;2023-12-28T07:01:39;48.10;43.83;54.03;;
83034;Laerm;72848;52.216;5.616;2023-12-28T07:04:07;47.86;41.44;55.64;;
83034;Laerm;72848;52.216;5.616;2023-12-28T07:06:35;50.65;44.00;58.07;;
83034;Laerm;72848;52.216;5.616;2023-12-28T07:09:04;48.83;43.03;57.01;;
83034;Laerm;72848;52.216;5.616;2023-12-28T07:11:32;48.88;42.37;65.01;;
83034;Laerm;72848;52.216;5.616;2023-12-28T07:14:00;48.32;42.79;56.12;;
83034;Laerm;72848;52.216;5.616;2023-12-28T07:16:29;43.94;40.49;48.64;;
83034;Laerm;72848;52.216;5.616;2023-12-28T07:19:00;47.15;40.70;57.44;;
83034;Laerm;72848;52.216;5.616;2023-12-28T07:21:28;47.32;42.10;55.82;;
83034;Laerm;72848;52.216;5.616;2023-12-28T07:23:57;46.67;42.09;55.11;;
83034;Laerm;72848;52.216;5.616;2023-12-28T07:26:25;50.41;42.52;60.58;;
83034;Laerm;72848;52.216;5.616;2023-12-28T07:28:53;48.51;43.03;56.81;;
83034;Laerm;72848;52.216;5.616;2023-12-28T07:31:22;45.80;40.55;56.39;;
83034;Laerm;72848;52.216;5.616;2023-12-28T07:33:50;46.38;41.49;53.09;;
83034;Laerm;72848;52.216;5.616;2023-12-28T07:36:21;48.68;43.95;56.53;;
83034;Laerm;72848;52.216;5.616;2023-12-28T07:38:50;46.82;40.79;58.11;;
83034;Laerm;72848;52.216;5.616;2023-12-28T07:41:18;48.84;41.15;65.31;;
83034;Laerm;72848;52.216;5.616;2023-12-28T07:43:46;48.09;41.70;61.21;;
83034;Laerm;72848;52.216;5.616;2023-12-28T07:46:15;46.00;42.26;49.93;;
83034;Laerm;72848;52.216;5.616;2023-12-28T07:48:43;44.61;39.58;58.37;;
83034;Laerm;72848;52.216;5.616;2023-12-28T07:51:12;46.02;41.84;51.49;;
83034;Laerm;72848;52.216;5.616;2023-12-28T07:53:43;44.50;40.33;49.70;;
83034;Laerm;72848;52.216;5.616;2023-12-28T07:56:12;44.70;40.23;53.30;;
83034;Laerm;72848;52.216;5.616;2023-12-28T07:58:40;47.10;41.83;56.82;;
83034;Laerm;72848;52.216;5.616;2023-12-28T08:01:11;46.36;40.55;56.00;;
83034;Laerm;72848;52.216;5.616;2023-12-28T08:03:40;45.45;41.47;57.63;;
83034;Laerm;72848;52.216;5.616;2023-12-28T08:06:08;46.85;40.48;57.17;;
83034;Laerm;72848;52.216;5.616;2023-12-28T08:08:36;46.11;40.17;53.99;;
83034;Laerm;72848;52.216;5.616;2023-12-28T08:11:07;43.75;39.53;49.40;;
83034;Laerm;72848;52.216;5.616;2023-12-28T08:13:36;44.44;39.97;58.17;;
83034;Laerm;72848;52.216;5.616;2023-12-28T08:16:04;46.96;41.76;55.02;;
83034;Laerm;72848;52.216;5.616;2023-12-28T08:18:33;47.78;42.34;56.64;;
83034;Laerm;72848;52.216;5.616;2023-12-28T08:21:01;44.39;40.32;49.71;;
83034;Laerm;72848;52.216;5.616;2023-12-28T08:23:31;46.49;41.04;53.52;;
83034;Laerm;72848;52.216;5.616;2023-12-28T08:25:59;46.44;40.62;52.84;;
83034;Laerm;72848;52.216;5.616;2023-12-28T08:28:30;45.93;40.44;52.15;;
83034;Laerm;72848;52.216;5.616;2023-12-28T08:30:58;44.81;41.28;51.16;;
83034;Laerm;72848;52.216;5.616;2023-12-28T08:33:27;45.64;41.04;54.60;;
83034;Laerm;72848;52.216;5.616;2023-12-28T08:35:55;51.04;44.16;59.87;;
83034;Laerm;72848;52.216;5.616;2023-12-28T08:38:23;47.64;42.94;56.58;;
83034;Laerm;72848;52.216;5.616;2023-12-28T08:40:52;47.85;41.39;55.93;;
83034;Laerm;72848;52.216;5.616;2023-12-28T08:43:20;45.31;41.22;54.94;;
83034;Laerm;72848;52.216;5.616;2023-12-28T08:45:53;48.28;43.63;57.67;;
83034;Laerm;72848;52.216;5.616;2023-12-28T08:48:21;43.87;39.32;52.21;;
83034;Laerm;72848;52.216;5.616;2023-12-28T08:50:50;45.45;40.85;51.71;;
83034;Laerm;72848;52.216;5.616;2023-12-28T08:53:18;46.46;41.36;55.53;;
83034;Laerm;72848;52.216;5.616;2023-12-28T08:55:47;48.29;42.83;56.90;;
83034;Laerm;72848;52.216;5.616;2023-12-28T08:58:15;45.08;40.97;51.61;;
83034;Laerm;72848;52.216;5.616;2023-12-28T09:00:43;49.58;41.65;71.50;;
83034;Laerm;72848;52.216;5.616;2023-12-28T09:03:14;46.41;40.94;64.56;;
83034;Laerm;72848;52.216;5.616;2023-12-28T09:05:43;46.39;41.19;59.12;;
83034;Laerm;72848;52.216;5.616;2023-12-28T09:08:11;46.74;42.67;60.28;;
83034;Laerm;72848;52.216;5.616;2023-12-28T09:10:39;48.68;42.76;59.22;;
83034;Laerm;72848;52.216;5.616;2023-12-28T09:13:08;49.62;44.23;61.50;;
83034;Laerm;72848;52.216;5.616;2023-12-28T09:15:42;46.34;42.90;52.04;;
83034;Laerm;72848;52.216;5.616;2023-12-28T09:18:11;44.58;41.24;52.63;;
83034;Laerm;72848;52.216;5.616;2023-12-28T09:20:42;49.09;41.64;60.06;;
83034;Laerm;72848;52.216;5.616;2023-12-28T09:23:10;48.67;41.16;59.41;;
83034;Laerm;72848;52.216;5.616;2023-12-28T09:25:39;51.11;43.61;68.97;;
83034;Laerm;72848;52.216;5.616;2023-12-28T09:28:08;46.25;41.36;54.08;;
83034;Laerm;72848;52.216;5.616;2023-12-28T09:30:36;46.84;41.18;54.00;;
83034;Laerm;72848;52.216;5.616;2023-12-28T09:33:05;50.32;43.05;59.22;;
83034;Laerm;72848;52.216;5.616;2023-12-28T09:35:33;46.70;41.75;58.68;;
83034;Laerm;72848;52.216;5.616;2023-12-28T09:38:04;49.77;42.61;65.53;;
83034;Laerm;72848;52.216;5.616;2023-12-28T09:40:32;48.88;42.61;59.72;;
83034;Laerm;72848;52.216;5.616;2023-12-28T09:43:03;46.75;41.81;59.16;;
83034;Laerm;72848;52.216;5.616;2023-12-28T09:45:35;48.59;43.24;53.72;;
83034;Laerm;72848;52.216;5.616;2023-12-28T09:48:04;48.62;43.55;59.57;;
83034;Laerm;72848;52.216;5.616;2023-12-28T09:50:32;44.97;41.03;58.49;;
83034;Laerm;72848;52.216;5.616;2023-12-28T09:53:00;46.64;41.74;60.06;;
83034;Laerm;72848;52.216;5.616;2023-12-28T09:55:32;51.10;40.72;68.25;;
83034;Laerm;72848;52.216;5.616;2023-12-28T09:58:01;49.58;44.71;60.00;;
83034;Laerm;72848;52.216;5.616;2023-12-28T10:00:30;51.97;44.36;59.53;;
83034;Laerm;72848;52.216;5.616;2023-12-28T10:02:59;46.79;42.01;61.18;;
83034;Laerm;72848;52.216;5.616;2023-12-28T10:05:27;50.96;43.97;65.95;;
83034;Laerm;72848;52.216;5.616;2023-12-28T10:07:56;48.76;42.60;60.16;;
83034;Laerm;72848;52.216;5.616;2023-12-28T10:10:24;47.81;41.84;64.31;;
83034;Laerm;72848;52.216;5.616;2023-12-28T10:12:55;48.21;43.38;55.67;;
83034;Laerm;72848;52.216;5.616;2023-12-28T10:15:23;53.77;44.79;66.42;;
83034;Laerm;72848;52.216;5.616;2023-12-28T10:17:52;49.45;44.42;69.72;;
83034;Laerm;72848;52.216;5.616;2023-12-28T10:20:20;49.21;44.06;56.94;;
83034;Laerm;72848;52.216;5.616;2023-12-28T10:22:49;47.51;41.85;55.06;;
83034;Laerm;72848;52.216;5.616;2023-12-28T10:25:17;43.90;40.05;51.34;;
83034;Laerm;72848;52.216;5.616;2023-12-28T10:27:45;46.78;42.64;54.60;;
83034;Laerm;72848;52.216;5.616;2023-12-28T10:30:16;45.50;41.39;54.06;;
83034;Laerm;72848;52.216;5.616;2023-12-28T10:32:45;50.52;44.50;61.35;;
83034;Laerm;72848;52.216;5.616;2023-12-28T10:35:13;46.62;41.90;54.90;;
83034;Laerm;72848;52.216;5.616;2023-12-28T10:37:42;46.60;43.15;58.85;;
83034;Laerm;72848;52.216;5.616;2023-12-28T10:40:12;48.75;44.05;60.22;;
83034;Laerm;72848;52.216;5.616;2023-12-28T10:42:44;47.25;44.26;55.72;;
83034;Laerm;72848;52.216;5.616;2023-12-28T10:45:18;51.15;43.43;65.54;;
83034;Laerm;72848;52.216;5.616;2023-12-28T10:47:49;47.15;43.64;64.22;;
83034;Laerm;72848;52.216;5.616;2023-12-28T10:50:21;47.39;41.69;67.81;;
83034;Laerm;72848;52.216;5.616;2023-12-28T10:52:52;48.64;43.38;65.56;;
83034;Laerm;72848;52.216;5.616;2023-12-28T10:55:33;46.49;43.21;51.06;;
83034;Laerm;72848;52.216;5.616;2023-12-28T10:58:05;47.47;42.45;61.14;;
83034;Laerm;72848;52.216;5.616;2023-12-28T11:00:39;50.10;43.32;61.26;;
83034;Laerm;72848;52.216;5.616;2023-12-28T11:03:11;48.65;43.71;57.01;;
83034;Laerm;72848;52.216;5.616;2023-12-28T11:05:40;54.12;46.11;62.18;;
83034;Laerm;72848;52.216;5.616;2023-12-28T11:08:08;48.21;42.84;57.90;;
83034;Laerm;72848;52.216;5.616;2023-12-28T11:10:37;49.19;43.99;58.61;;
83034;Laerm;72848;52.216;5.616;2023-12-28T11:13:06;50.64;43.75;59.06;;
83034;Laerm;72848;52.216;5.616;2023-12-28T11:15:38;44.89;41.37;50.37;;
83034;Laerm;72848;52.216;5.616;2023-12-28T11:18:07;50.15;41.02;63.13;;
83034;Laerm;72848;52.216;5.616;2023-12-28T11:20:35;46.53;43.00;54.68;;
83034;Laerm;72848;52.216;5.616;2023-12-28T11:23:04;48.45;43.29;56.14;;
83034;Laerm;72848;52.216;5.616;2023-12-28T11:25:34;50.32;45.54;56.98;;
83034;Laerm;72848;52.216;5.616;2023-12-28T11:28:08;48.01;43.41;56.64;;
83034;Laerm;72848;52.216;5.616;2023-12-28T11:30:41;48.17;42.57;56.08;;
83034;Laerm;72848;52.216;5.616;2023-12-28T11:33:09;49.89;41.44;61.04;;
83034;Laerm;72848;52.216;5.616;2023-12-28T11:35:38;44.44;40.91;50.06;;
83034;Laerm;72848;52.216;5.616;2023-12-28T11:38:08;46.27;41.92;52.10;;
83034;Laerm;72848;52.216;5.616;2023-12-28T11:40:40;50.09;41.70;61.14;;
83034;Laerm;72848;52.216;5.616;2023-12-28T11:43:18;49.94;42.74;59.59;;
83034;Laerm;72848;52.216;5.616;2023-12-28T11:45:49;46.80;42.86;57.02;;
83034;Laerm;72848;52.216;5.616;2023-12-28T11:48:24;46.10;41.09;55.57;;
83034;Laerm;72848;52.216;5.616;2023-12-28T11:50:54;52.77;44.40;63.50;;
83034;Laerm;72848;52.216;5.616;2023-12-28T11:53:23;50.07;42.63;58.79;;
83034;Laerm;72848;52.216;5.616;2023-12-28T11:55:51;44.87;40.02;52.59;;
83034;Laerm;72848;52.216;5.616;2023-12-28T11:58:21;46.97;42.44;55.61;;
83034;Laerm;72848;52.216;5.616;2023-12-28T12:00:51;44.96;41.33;53.38;;
83034;Laerm;72848;52.216;5.616;2023-12-28T12:03:20;46.44;42.17;58.91;;
83034;Laerm;72848;52.216;5.616;2023-12-28T12:05:48;46.34;42.80;56.08;;
83034;Laerm;72848;52.216;5.616;2023-12-28T12:08:18;48.09;42.87;59.43;;
83034;Laerm;72848;52.216;5.616;2023-12-28T12:10:46;49.09;42.97;60.74;;
83034;Laerm;72848;52.216;5.616;2023-12-28T12:13:14;46.66;40.97;53.52;;
83034;Laerm;72848;52.216;5.616;2023-12-28T12:15:43;49.30;44.13;59.54;;
83034;Laerm;72848;52.216;5.616;2023-12-28T12:18:14;47.71;43.02;56.02;;
83034;Laerm;72848;52.216;5.616;2023-12-28T12:20:43;45.29;40.57;57.15;;
83034;Laerm;72848;52.216;5.616;2023-12-28T12:23:11;47.92;41.51;59.79;;
83034;Laerm;72848;52.216;5.616;2023-12-28T12:25:40;49.07;42.83;62.89;;
83034;Laerm;72848;52.216;5.616;2023-12-28T12:28:08;47.14;41.79;60.59;;
83034;Laerm;72848;52.216;5.616;2023-12-28T12:30:37;46.96;41.59;58.24;;
83034;Laerm;72848;52.216;5.616;2023-12-28T12:33:05;44.99;41.24;52.29;;
83034;Laerm;72848;52.216;5.616;2023-12-28T12:35:37;47.71;42.77;59.04;;
83034;Laerm;72848;52.216;5.616;2023-12-28T12:38:05;48.92;43.98;56.92;;
83034;Laerm;72848;52.216;5.616;2023-12-28T12:40:34;45.74;41.26;51.51;;
83034;Laerm;72848;52.216;5.616;2023-12-28T12:43:03;45.56;40.81;54.78;;
83034;Laerm;72848;52.216;5.616;2023-12-28T12:45:31;46.24;41.80;58.53;;
83034;Laerm;72848;52.216;5.616;2023-12-28T12:48:01;45.76;41.35;54.43;;
83034;Laerm;72848;52.216;5.616;2023-12-28T12:50:30;45.49;41.38;54.77;;
83034;Laerm;72848;52.216;5.616;2023-12-28T12:53:04;47.34;41.54;54.58;;
83034;Laerm;72848;52.216;5.616;2023-12-28T12:55:33;47.98;41.73;57.83;;
83034;Laerm;72848;52.216;5.616;2023-12-28T12:58:01;47.27;42.30;56.01;;
83034;Laerm;72848;52.216;5.616;2023-12-28T13:00:30;45.50;42.43;51.86;;
83034;Laerm;72848;52.216;5.616;2023-12-28T13:02:59;46.30;42.44;54.34;;
83034;Laerm;72848;52.216;5.616;2023-12-28T13:05:27;45.50;41.42;57.45;;
83034;Laerm;72848;52.216;5.616;2023-12-28T13:07:56;44.29;40.50;54.40;;
83034;Laerm;72848;52.216;5.616;2023-12-28T13:10:27;45.43;40.73;52.65;;
83034;Laerm;72848;52.216;5.616;2023-12-28T13:12:55;44.82;41.18;59.99;;
83034;Laerm;72848;52.216;5.616;2023-12-28T13:15:24;50.64;42.72;56.81;;
83034;Laerm;72848;52.216;5.616;2023-12-28T13:17:52;45.70;41.96;51.40;;
83034;Laerm;72848;52.216;5.616;2023-12-28T13:20:21;46.33;42.04;56.79;;
83034;Laerm;72848;52.216;5.616;2023-12-28T13:22:49;45.60;42.28;57.38;;
83034;Laerm;72848;52.216;5.616;2023-12-28T13:25:17;44.99;41.38;50.41;;
83034;Laerm;72848;52.216;5.616;2023-12-28T13:27:49;44.18;40.03;52.57;;
83034;Laerm;72848;52.216;5.616;2023-12-28T13:30:17;47.11;41.07;54.97;;
83034;Laerm;72848;52.216;5.616;2023-12-28T13:32:45;48.45;43.08;60.04;;
83034;Laerm;72848;52.216;5.616;2023-12-28T13:35:14;45.47;40.86;52.31;;
83034;Laerm;72848;52.216;5.616;2023-12-28T13:37:42;48.79;40.84;60.99;;
83034;Laerm;72848;52.216;5.616;2023-12-28T13:40:11;46.29;42.52;54.72;;
83034;Laerm;72848;52.216;5.616;2023-12-28T13:42:39;46.70;42.68;53.44;;
83034;Laerm;72848;52.216;5.616;2023-12-28T13:45:11;47.11;42.57;64.45;;
83034;Laerm;72848;52.216;5.616;2023-12-28T13:47:39;47.22;42.64;55.30;;
83034;Laerm;72848;52.216;5.616;2023-12-28T13:50:08;46.99;41.97;53.87;;
83034;Laerm;72848;52.216;5.616;2023-12-28T13:52:37;47.65;41.28;57.71;;
83034;Laerm;72848;52.216;5.616;2023-12-28T13:55:06;47.05;42.15;54.51;;